createdAt,value
2019-05-14T00:03:45.143Z,8.32
2019-05-14T00:08:48.763Z,8.32
2019-05-14T00:13:52.911Z,8.28
2019-05-14T00:18:56.301Z,8.14
2019-05-14T00:24:01.800Z,7.96
2019-05-14T00:29:05.032Z,7.68
2019-05-14T00:34:11.011Z,7.58
2019-05-14T00:39:13.832Z,7.56
2019-05-14T00:44:17.458Z,7.55
2019-05-14T00:49:21.283Z,7.44
2019-05-14T00:54:24.711Z,7.44
2019-05-14T00:59:28.098Z,7.38
2019-05-14T01:04:31.823Z,7.22
2019-05-14T01:09:35.152Z,6.91
2019-05-14T01:14:38.541Z,6.80
2019-05-14T01:19:42.611Z,6.56
2019-05-14T01:24:46.114Z,6.18
2019-05-14T01:29:51.450Z,6.00
2019-05-14T01:34:54.607Z,5.95
2019-05-14T01:39:57.998Z,5.72
2019-05-14T01:45:02.576Z,5.68
2019-05-14T01:50:07.124Z,5.67
2019-05-14T01:55:11.471Z,5.76
2019-05-14T02:00:15.403Z,5.79
2019-05-14T02:05:18.819Z,5.73
2019-05-14T02:10:22.745Z,5.68
2019-05-14T02:15:38.889Z,5.60
2019-05-14T02:20:32.118Z,5.62
2019-05-14T02:25:35.622Z,5.62
2019-05-14T02:30:52.478Z,5.49
2019-05-14T02:35:44.425Z,5.40
2019-05-14T02:40:49.452Z,5.22
2019-05-14T02:46:06.082Z,4.92
2019-05-14T02:50:59.907Z,4.76
2019-05-14T02:56:03.709Z,4.64
2019-05-14T03:01:09.430Z,4.61
2019-05-14T03:06:12.535Z,4.69
2019-05-14T03:11:16.160Z,4.65
2019-05-14T03:16:29.318Z,4.67
2019-05-14T03:21:24.673Z,4.63
2019-05-14T03:26:29.341Z,4.60
2019-05-14T03:31:34.117Z,4.51
2019-05-14T03:36:42.689Z,4.27
2019-05-14T03:41:42.753Z,4.07
2019-05-14T03:46:54.703Z,4.12
2019-05-14T03:51:51.414Z,4.10
2019-05-14T03:56:55.003Z,4.05
2019-05-14T04:01:59.607Z,4.06
2019-05-14T04:07:04.227Z,4.18
2019-05-14T04:12:10.119Z,4.31
2019-05-14T04:17:25.522Z,4.40
2019-05-14T04:22:24.086Z,4.40
2019-05-14T04:27:30.253Z,4.21
2019-05-14T04:32:33.814Z,4.14
2019-05-14T04:37:39.919Z,4.22
2019-05-14T04:42:42.583Z,4.51
2019-05-14T04:47:49.525Z,4.53
2019-05-14T04:52:51.107Z,4.59
2019-05-14T04:57:54.730Z,4.78
2019-05-14T05:03:00.008Z,4.83
2019-05-14T05:08:03.226Z,5.12
2019-05-14T05:13:09.125Z,5.40
2019-05-14T05:18:11.740Z,5.59
2019-05-14T05:23:15.370Z,5.70
2019-05-14T05:28:19.199Z,5.79
2019-05-14T05:33:22.547Z,6.00
2019-05-14T05:38:25.958Z,6.28
2019-05-14T05:43:29.381Z,6.44
2019-05-14T05:48:33.037Z,6.66
2019-05-14T05:53:39.038Z,6.87
2019-05-14T05:58:41.556Z,7.07
2019-05-14T06:03:44.972Z,7.20
2019-05-14T06:08:49.161Z,7.46
2019-05-14T06:13:52.847Z,7.63
2019-05-14T06:18:58.622Z,7.87
2019-05-14T06:24:02.950Z,8.00
2019-05-14T06:29:08.403Z,8.16
2019-05-14T06:34:11.583Z,8.31
2019-05-14T06:39:14.975Z,8.54
2019-05-14T06:44:18.818Z,8.74
2019-05-14T06:49:22.282Z,8.74
2019-05-14T06:54:25.700Z,8.74
2019-05-14T06:59:29.088Z,8.83
2019-05-14T07:04:32.473Z,8.89
2019-05-14T07:09:38.353Z,8.95
2019-05-14T07:14:41.653Z,8.89
2019-05-14T07:19:45.064Z,8.84
2019-05-14T07:24:49.710Z,9.04
2019-05-14T07:29:53.353Z,9.47
2019-05-14T07:34:56.772Z,9.63
2019-05-14T07:40:00.189Z,9.97
2019-05-14T07:45:04.702Z,10.02
2019-05-14T07:50:09.441Z,10.00
2019-05-14T07:55:13.069Z,9.99
2019-05-14T08:00:19.160Z,10.27
2019-05-14T08:05:22.334Z,10.47
2019-05-14T08:10:25.742Z,10.86
2019-05-14T08:15:29.133Z,11.12
2019-05-14T08:20:32.522Z,11.24
2019-05-14T08:25:35.914Z,11.47
2019-05-14T08:30:39.332Z,11.32
2019-05-14T08:35:42.761Z,11.75
2019-05-14T08:40:48.663Z,11.73
2019-05-14T08:45:51.324Z,11.55
2019-05-14T08:50:54.714Z,11.90
2019-05-14T08:55:58.931Z,12.39
2019-05-14T09:01:02.441Z,12.37
2019-05-14T09:06:05.833Z,13.08
2019-05-14T09:11:10.123Z,12.89
2019-05-14T09:16:13.842Z,12.50
2019-05-14T09:21:20.214Z,13.00
2019-05-14T09:26:22.349Z,13.23
2019-05-14T09:31:25.746Z,12.78
2019-05-14T09:36:29.273Z,13.11
2019-05-14T09:41:32.733Z,12.85
2019-05-14T09:46:38.285Z,12.48
2019-05-14T09:51:41.244Z,13.11
2019-05-14T09:56:44.650Z,12.61
2019-05-14T10:01:50.787Z,11.77
2019-05-14T10:06:53.201Z,12.71
2019-05-14T10:11:57.988Z,13.19
2019-05-14T10:17:01.507Z,13.15
2019-05-14T10:22:04.932Z,12.55
2019-05-14T10:27:09.101Z,12.96
2019-05-14T10:32:12.609Z,13.53
2019-05-14T10:37:16.050Z,13.73
2019-05-14T10:42:20.296Z,14.00
2019-05-14T10:47:23.806Z,14.20
2019-05-14T10:52:28.880Z,13.97
2019-05-14T10:57:32.543Z,14.38
2019-05-14T11:02:38.533Z,14.80
2019-05-14T11:07:41.913Z,14.80
2019-05-14T11:12:45.316Z,13.73
2019-05-14T11:17:48.907Z,13.05
2019-05-14T11:22:52.508Z,13.35
2019-05-14T11:27:58.455Z,12.55
2019-05-14T11:33:01.378Z,12.93
2019-05-14T11:38:04.800Z,13.49
2019-05-14T11:43:08.465Z,13.51
2019-05-14T11:48:11.865Z,13.83
2019-05-14T11:53:15.270Z,13.58
2019-05-14T11:58:20.984Z,14.20
2019-05-14T12:03:24.087Z,14.74
2019-05-14T12:08:28.781Z,14.17
2019-05-14T12:13:33.000Z,12.12
2019-05-14T12:18:41.360Z,12.45
2019-05-14T12:23:41.526Z,12.44
2019-05-14T12:28:44.955Z,12.83
2019-05-14T12:33:48.954Z,13.12
2019-05-14T12:38:52.442Z,13.33
2019-05-14T12:43:55.866Z,13.92
2019-05-14T12:48:59.277Z,14.77
2019-05-14T12:54:02.671Z,14.76
2019-05-14T12:59:06.070Z,14.48
2019-05-14T13:04:09.454Z,14.60
2019-05-14T13:09:12.844Z,14.19
2019-05-14T13:14:16.239Z,13.91
2019-05-14T13:19:19.877Z,15.36
2019-05-14T13:24:23.272Z,15.36
2019-05-14T13:29:28.932Z,15.70
2019-05-14T13:34:31.781Z,15.42
2019-05-14T13:39:35.214Z,14.86
2019-05-14T13:44:38.663Z,14.00
2019-05-14T13:49:42.063Z,13.82
2019-05-14T13:54:45.488Z,12.96
2019-05-14T13:59:49.446Z,12.62
2019-05-14T14:04:52.873Z,12.98
2019-05-14T14:09:58.978Z,13.88
2019-05-14T14:15:01.459Z,14.91
2019-05-14T14:20:08.303Z,14.81
2019-05-14T14:25:12.313Z,14.44
2019-05-14T14:30:19.532Z,14.22
2019-05-14T14:35:24.544Z,13.70
2019-05-14T14:40:30.214Z,13.09
2019-05-14T14:45:33.401Z,13.41
2019-05-14T14:50:38.959Z,13.84
2019-05-14T14:55:42.265Z,14.29
2019-05-14T15:00:45.661Z,14.57
2019-05-14T15:05:49.978Z,14.24
2019-05-14T15:10:53.447Z,13.06
2019-05-14T15:15:56.873Z,12.72
2019-05-14T15:21:00.268Z,13.49
2019-05-14T15:26:03.813Z,14.16
2019-05-14T15:31:08.696Z,13.72
2019-05-14T15:36:12.419Z,13.14
2019-05-14T15:41:15.869Z,13.81
2019-05-14T15:46:19.292Z,14.51
2019-05-14T15:51:22.683Z,13.85
2019-05-14T15:56:26.106Z,12.76
2019-05-14T16:01:29.525Z,12.88
2019-05-14T16:06:33.157Z,12.35
2019-05-14T16:11:36.549Z,12.64
2019-05-14T16:16:39.990Z,13.08
2019-05-14T16:21:43.409Z,13.48
2019-05-14T16:26:46.835Z,13.18
2019-05-14T16:31:50.230Z,13.05
2019-05-14T16:36:53.628Z,12.42
2019-05-14T16:41:58.287Z,12.52
2019-05-14T16:47:01.694Z,13.28
2019-05-14T16:52:05.130Z,14.04
2019-05-14T16:57:11.061Z,13.48
2019-05-14T17:02:13.952Z,13.01
2019-05-14T17:07:18.295Z,13.48
2019-05-14T17:12:22.989Z,13.11
2019-05-14T17:17:26.509Z,12.75
2019-05-14T17:22:33.562Z,12.07
2019-05-14T17:27:35.013Z,11.84
2019-05-14T17:32:39.366Z,11.27
2019-05-14T17:37:42.846Z,10.83
2019-05-14T17:42:48.764Z,11.01
2019-05-14T17:47:51.866Z,11.42
2019-05-14T17:52:56.972Z,10.76
2019-05-14T17:58:00.759Z,10.79
2019-05-14T18:03:04.699Z,10.84
2019-05-14T18:08:09.291Z,10.96
2019-05-14T18:13:12.847Z,11.09
2019-05-14T18:18:18.435Z,11.12
2019-05-14T18:23:21.422Z,11.03
2019-05-14T18:28:24.882Z,11.00
2019-05-14T18:33:31.172Z,11.11
2019-05-14T18:38:33.757Z,11.16
2019-05-14T18:43:37.240Z,11.14
2019-05-14T18:48:40.873Z,11.05
2019-05-14T18:53:44.265Z,10.95
2019-05-14T18:58:49.006Z,10.75
2019-05-14T19:03:52.600Z,10.24
2019-05-14T19:08:56.016Z,9.55
2019-05-14T19:13:59.647Z,9.46
2019-05-14T19:19:03.269Z,9.27
2019-05-14T19:24:08.938Z,9.25
2019-05-14T19:29:11.823Z,9.09
2019-05-14T19:34:15.243Z,9.05
2019-05-14T19:39:18.876Z,8.98
2019-05-14T19:44:22.580Z,8.77
2019-05-14T19:49:25.969Z,8.64
2019-05-14T19:54:29.410Z,8.52
2019-05-14T19:59:32.743Z,8.51
2019-05-14T20:04:36.134Z,8.56
2019-05-14T20:09:39.829Z,8.38
2019-05-14T20:14:43.212Z,8.32
2019-05-14T20:19:48.839Z,8.40
2019-05-14T20:24:51.947Z,8.31
2019-05-14T20:29:55.338Z,8.13
2019-05-14T20:34:58.717Z,8.18
2019-05-14T20:40:02.129Z,8.09
2019-05-14T20:45:06.895Z,8.11
2019-05-14T20:50:10.746Z,8.21
2019-05-14T20:55:14.201Z,8.18
2019-05-14T21:00:18.465Z,8.23
2019-05-14T21:05:21.879Z,8.12
2019-05-14T21:10:25.269Z,8.09
2019-05-14T21:15:28.988Z,8.29
2019-05-14T21:20:32.560Z,8.49
2019-05-14T21:25:35.947Z,8.51
2019-05-14T21:30:39.368Z,8.59
2019-05-14T21:35:42.788Z,8.62
2019-05-14T21:40:46.176Z,8.61
2019-05-14T21:45:49.590Z,8.64
2019-05-14T21:50:53.269Z,8.77
2019-05-14T21:55:58.634Z,8.72
2019-05-14T22:01:03.709Z,8.42
2019-05-14T22:06:08.892Z,8.39
2019-05-14T22:11:12.540Z,8.29
2019-05-14T22:16:16.163Z,8.31
2019-05-14T22:21:19.581Z,8.36
2019-05-14T22:26:22.967Z,8.41
2019-05-14T22:31:28.740Z,8.09
2019-05-14T22:36:31.520Z,8.05
2019-05-14T22:41:35.190Z,8.10
2019-05-14T22:46:40.347Z,7.82
2019-05-14T22:51:43.895Z,7.52
2019-05-14T22:56:48.100Z,7.24
2019-05-14T23:01:51.572Z,7.01
2019-05-14T23:06:54.976Z,6.97
2019-05-14T23:11:59.000Z,6.89
2019-05-14T23:17:02.375Z,6.74
2019-05-14T23:22:05.997Z,6.52
2019-05-14T23:27:09.379Z,6.35
2019-05-14T23:32:12.835Z,6.45
2019-05-14T23:37:18.153Z,6.58
2019-05-14T23:42:21.626Z,6.38
2019-05-14T23:47:25.244Z,6.18
2019-05-14T23:52:29.444Z,6.07
2019-05-14T23:57:32.891Z,6.05
